createdAt,value
2023-10-23T03:33:29.422Z,101263.84
2023-10-23T03:44:15.648Z,101265.00
2023-10-23T04:43:52.491Z,101315.72
2023-10-23T04:59:58.106Z,101295.38
2023-10-23T05:05:18.496Z,101299.94
2023-10-23T05:10:20.856Z,101306.03
2023-10-23T05:21:14.672Z,101307.75
2023-10-23T05:26:17.092Z,101333.75
2023-10-23T05:31:59.016Z,101332.25
2023-10-23T05:43:32.158Z,101341.75
2023-10-23T05:49:33.480Z,101336.84
2023-10-23T06:00:48.114Z,101350.19
2023-10-23T06:05:44.660Z,101376.94
2023-10-23T06:11:30.433Z,101377.84
2023-10-23T06:17:07.880Z,101364.41
2023-10-23T06:22:15.396Z,101366.38
2023-10-23T06:27:24.269Z,101364.69
2023-10-23T06:32:20.892Z,101403.47
2023-10-23T06:37:18.300Z,101383.63
2023-10-23T06:42:16.691Z,101403.41
2023-10-23T06:47:13.417Z,101410.25
2023-10-23T06:52:23.984Z,101416.28
2023-10-23T06:57:20.490Z,101414.56
2023-10-23T07:02:17.024Z,101416.00
2023-10-23T07:07:28.710Z,101416.66
2023-10-23T07:12:27.204Z,101425.97
2023-10-23T07:17:28.061Z,101423.09
2023-10-23T07:23:02.144Z,101415.53
2023-10-23T07:28:21.737Z,101416.38
2023-10-23T07:34:21.082Z,101442.16
2023-10-23T07:38:51.420Z,101423.25
2023-10-23T07:43:50.972Z,101453.97
2023-10-23T07:49:37.449Z,101461.03
2023-10-23T07:54:33.317Z,101444.56
2023-10-23T07:59:30.041Z,101461.75
2023-10-23T08:04:46.591Z,101460.78
2023-10-23T08:09:52.048Z,101471.47
2023-10-23T08:15:39.381Z,101474.22
2023-10-23T08:20:36.421Z,101471.31
2023-10-23T08:25:34.193Z,101475.50
2023-10-23T08:30:35.938Z,101454.84
2023-10-23T08:35:46.922Z,101458.91
2023-10-23T08:40:51.055Z,101454.19
2023-10-23T08:45:52.920Z,101454.19
2023-10-23T08:56:37.913Z,101441.50
2023-10-23T09:02:01.751Z,101460.38
2023-10-23T09:07:01.782Z,101468.88
2023-10-23T09:12:07.926Z,101452.13
2023-10-23T09:17:32.899Z,101462.66
2023-10-23T09:22:38.172Z,101448.47
2023-10-23T09:27:39.606Z,101462.03
2023-10-23T09:32:44.221Z,101475.31
2023-10-23T09:37:41.020Z,101474.00
2023-10-23T09:42:37.422Z,101466.31
2023-10-23T09:47:34.007Z,101463.44
2023-10-23T09:52:48.605Z,101441.72
2023-10-23T09:57:59.928Z,101446.66
2023-10-23T10:03:23.979Z,101480.88
2023-10-23T10:08:25.764Z,101479.78
2023-10-23T10:13:26.054Z,101465.50
2023-10-23T10:18:32.755Z,101455.47
2023-10-23T10:23:42.843Z,101455.81
2023-10-23T10:28:45.147Z,101444.03
2023-10-23T10:34:27.509Z,101476.16
2023-10-23T10:39:14.261Z,101443.56
2023-10-23T10:44:28.190Z,101438.75
2023-10-23T10:49:41.962Z,101442.69
2023-10-23T10:54:45.644Z,101435.06
2023-10-23T10:59:49.432Z,101434.53
2023-10-23T11:04:58.055Z,101426.97
2023-10-23T11:10:12.044Z,101417.78
2023-10-23T11:15:11.982Z,101440.56
2023-10-23T11:20:09.880Z,101441.72
2023-10-23T11:25:10.084Z,101448.56
2023-10-23T11:30:07.612Z,101440.34
2023-10-23T11:35:06.438Z,101422.56
2023-10-23T11:40:07.504Z,101430.94
2023-10-23T11:45:04.712Z,101424.66
2023-10-23T11:50:04.460Z,101413.84
2023-10-23T11:55:01.564Z,101438.38
2023-10-23T11:59:58.243Z,101438.97
2023-10-23T12:04:54.644Z,101437.59
2023-10-23T12:09:51.493Z,101447.25
2023-10-23T12:14:48.260Z,101424.50
2023-10-23T12:19:44.751Z,101411.38
2023-10-23T12:24:41.579Z,101418.06
2023-10-23T12:29:45.257Z,101401.31
2023-10-23T12:34:42.027Z,101420.84
2023-10-23T12:39:43.296Z,101399.06
2023-10-23T12:44:40.146Z,101397.06
2023-10-23T12:49:39.571Z,101396.97
2023-10-23T12:54:36.327Z,101400.19
2023-10-23T12:59:32.980Z,101407.41
2023-10-23T13:04:30.486Z,101410.84
2023-10-23T13:09:27.228Z,101397.31
2023-10-23T13:14:23.632Z,101402.34
2023-10-23T13:19:20.910Z,101393.19
2023-10-23T13:24:18.982Z,101386.94
2023-10-23T13:29:15.613Z,101390.16
2023-10-23T13:34:13.332Z,101373.88
2023-10-23T13:44:10.159Z,101370.09
2023-10-23T13:49:06.997Z,101357.63
2023-10-23T13:54:04.055Z,101366.06
2023-10-23T13:59:00.960Z,101371.41
2023-10-23T14:03:58.342Z,101357.53
2023-10-23T14:09:40.984Z,101362.28
2023-10-23T14:14:12.168Z,101355.25
2023-10-23T14:19:08.811Z,101332.28
2023-10-23T14:24:05.719Z,101346.16
2023-10-23T14:29:02.846Z,101364.66
2023-10-23T14:34:01.710Z,101348.44
2023-10-23T14:38:58.505Z,101345.03
2023-10-23T14:43:55.634Z,101319.25
2023-10-23T14:48:52.273Z,101352.91
2023-10-23T14:53:48.743Z,101351.00
2023-10-23T14:58:45.315Z,101332.06
2023-10-23T15:03:43.187Z,101328.84
2023-10-23T15:08:40.870Z,101321.34
2023-10-23T15:13:37.443Z,101327.31
2023-10-23T15:18:34.649Z,101321.25
2023-10-23T15:23:34.108Z,101321.75
2023-10-23T15:28:32.264Z,101313.28
2023-10-23T15:33:30.721Z,101290.06
2023-10-23T15:38:32.126Z,101313.28
2023-10-23T15:43:28.734Z,101310.00
2023-10-23T15:48:25.324Z,101302.34
2023-10-23T15:53:24.002Z,101272.78
2023-10-23T15:58:23.685Z,101284.19
2023-10-23T16:03:21.503Z,101293.78
2023-10-23T16:08:18.515Z,101296.91
2023-10-23T16:13:22.482Z,101310.53
2023-10-23T16:18:19.170Z,101293.97
2023-10-23T16:23:15.585Z,101286.28
2023-10-23T16:28:14.695Z,101288.53
2023-10-23T16:33:19.437Z,101279.22
2023-10-23T16:38:16.100Z,101264.22
2023-10-23T16:43:14.529Z,101282.19
2023-10-23T16:48:11.192Z,101253.38
2023-10-23T16:53:07.906Z,101281.88
2023-10-23T16:59:08.269Z,101273.31
2023-10-23T17:09:57.783Z,101266.06
2023-10-23T17:15:40.490Z,101246.69
2023-10-23T17:27:42.418Z,101271.00
2023-10-23T17:33:02.109Z,101255.97
2023-10-23T17:38:01.055Z,101270.50
2023-10-23T17:43:14.469Z,101263.84
2023-10-23T17:48:19.590Z,101259.59
2023-10-23T17:53:42.048Z,101243.31
2023-10-23T17:58:48.044Z,101238.91
2023-10-23T18:03:44.809Z,101270.75
2023-10-23T18:08:44.391Z,101256.91
2023-10-23T18:13:44.632Z,101247.50
2023-10-23T18:58:04.907Z,101266.69
2023-10-23T19:03:04.346Z,101246.50
2023-10-23T19:08:03.824Z,101254.88
